Time;durP1;ratioP1;P1;durP2;ratioP2;P2;SDS_P1;SDS_P2;PMS_P1;PMS_P2;Temp;Humidity;BMP_temperature;BMP_pressure;BME280_temperature;BME280_humidity;BME280_pressure;Samples;Min_cycle;Max_cycle;Signal;HPM_P1;HPM_P2
2022/12/12 00:01:56;;;;;;;34.30;19.05;;;0.10;99.90;;;;;;6214491;23;20112;-91
2022/12/12 00:04:22;;;;;;;36.95;19.95;;;-0.10;99.90;;;;;;6213636;23;20016;-91
2022/12/12 00:06:50;;;;;;;32.92;18.98;;;-0.30;99.90;;;;;;6214038;23;20113;-92
2022/12/12 00:09:16;;;;;;;35.15;19.77;;;-0.40;99.90;;;;;;6214224;23;20019;-91
2022/12/12 00:11:42;;;;;;;35.17;19.35;;;-0.50;99.90;;;;;;6214403;23;20038;-92
2022/12/12 00:14:10;;;;;;;34.55;18.60;;;0.20;99.90;;;;;;6213476;23;20020;-91
2022/12/12 00:16:36;;;;;;;33.90;18.98;;;-0.10;99.90;;;;;;6214966;23;20012;-91
2022/12/12 00:19:02;;;;;;;35.53;19.30;;;-0.50;99.90;;;;;;6213155;23;20016;-91
2022/12/12 00:21:28;;;;;;;33.38;19.00;;;1.00;99.90;;;;;;6213427;23;20020;-91
2022/12/12 00:23:55;;;;;;;38.90;19.45;;;0.80;99.90;;;;;;6214581;23;20022;-91
2022/12/12 00:26:24;;;;;;;33.45;18.05;;;0.50;99.90;;;;;;6213830;23;20106;-91
2022/12/12 00:28:50;;;;;;;33.95;19.33;;;0.90;99.90;;;;;;6188411;23;20011;-91
2022/12/12 00:31:16;;;;;;;34.22;19.45;;;-0.30;99.90;;;;;;6213268;23;20448;-91
2022/12/12 00:33:45;;;;;;;34.03;18.60;;;0.80;99.90;;;;;;6214642;23;20020;-90
2022/12/12 00:36:11;;;;;;;34.85;19.02;;;-0.20;99.90;;;;;;6212179;23;20023;-91
2022/12/12 00:38:37;;;;;;;35.65;18.15;;;1.20;99.90;;;;;;6214597;23;20052;-91
2022/12/12 00:41:04;;;;;;;36.67;18.73;;;-0.20;99.90;;;;;;6213817;23;20024;-91
2022/12/12 00:43:31;;;;;;;38.50;19.15;;;-0.30;99.90;;;;;;6213500;23;20105;-91
2022/12/12 00:45:59;;;;;;;30.05;17.52;;;-0.30;99.90;;;;;;6213871;23;20071;-91
2022/12/12 00:48:25;;;;;;;36.58;19.70;;;0.30;99.90;;;;;;6210149;23;20087;-91
2022/12/12 00:50:51;;;;;;;31.95;17.88;;;0.60;99.90;;;;;;6158206;23;20108;-91
2022/12/12 00:53:18;;;;;;;34.50;18.77;;;-0.80;99.90;;;;;;6159027;23;20582;-91
2022/12/12 00:55:43;;;;;;;34.75;19.27;;;0.50;99.90;;;;;;6158818;23;20052;-90
2022/12/12 00:58:09;;;;;;;36.58;19.38;;;-0.10;99.90;;;;;;6159267;23;20016;-91
2022/12/12 01:00:37;;;;;;;32.22;18.23;;;-0.10;99.90;;;;;;6159383;23;20020;-91
2022/12/12 01:03:02;;;;;;;37.00;18.70;;;0.50;99.90;;;;;;6158447;23;20035;-90
2022/12/12 01:05:28;;;;;;;34.97;18.90;;;0.60;99.90;;;;;;6158551;23;20095;-90
2022/12/12 01:07:54;;;;;;;30.67;17.52;;;0.50;99.90;;;;;;6159299;23;20023;-90
2022/12/12 01:10:20;;;;;;;33.20;18.83;;;-0.60;99.90;;;;;;6158075;23;20411;-91
2022/12/12 01:12:47;;;;;;;30.35;18.52;;;0.90;99.90;;;;;;6134772;23;20021;-90
2022/12/12 01:15:12;;;;;;;33.22;19.08;;;0.40;99.90;;;;;;6158517;23;20021;-90
2022/12/12 01:17:38;;;;;;;35.22;19.05;;;-0.60;99.90;;;;;;6183303;23;20043;-90
2022/12/12 01:20:06;;;;;;;36.70;19.13;;;-0.20;99.90;;;;;;6157865;23;20013;-90
2022/12/12 01:22:32;;;;;;;34.75;19.65;;;-0.30;99.90;;;;;;6159109;23;20020;-91
2022/12/12 01:24:59;;;;;;;33.92;18.42;;;0.70;99.90;;;;;;6158156;23;20020;-90
2022/12/12 01:27:26;;;;;;;32.53;18.83;;;-0.40;99.90;;;;;;6159714;23;20438;-90
2022/12/12 01:29:52;;;;;;;34.70;18.92;;;0.60;99.90;;;;;;6158677;23;20079;-91
2022/12/12 01:32:20;;;;;;;33.28;18.60;;;1.00;99.90;;;;;;6158242;23;20071;-90
2022/12/12 01:34:46;;;;;;;38.10;20.02;;;0.90;99.90;;;;;;6158130;23;20023;-91
2022/12/12 01:37:12;;;;;;;34.58;19.10;;;0.70;99.90;;;;;;6159086;23;20080;-91
2022/12/12 01:39:37;;;;;;;33.72;18.98;;;0.20;99.90;;;;;;6158145;23;20013;-90
2022/12/12 01:42:03;;;;;;;35.38;18.42;;;0.30;99.90;;;;;;6158996;23;20099;-91
2022/12/12 01:44:40;;;;;;;33.30;18.70;;;-0.30;99.90;;;;;;6159180;23;20016;-91
2022/12/12 01:47:06;;;;;;;37.78;19.90;;;-0.30;99.90;;;;;;6158460;23;20031;-91
2022/12/12 01:49:33;;;;;;;34.08;17.95;;;0.90;99.90;;;;;;6177557;23;20024;-91
2022/12/12 01:52:04;;;;;;;34.70;18.73;;;0.40;99.90;;;;;;6214628;23;20098;-91
2022/12/12 01:54:36;;;;;;;36.95;19.42;;;-0.40;99.90;;;;;;6190284;23;20060;-91
2022/12/12 01:57:06;;;;;;;34.60;18.98;;;0.40;99.90;;;;;;6215975;23;20016;-91
2022/12/12 01:59:33;;;;;;;35.25;19.95;;;-0.40;99.90;;;;;;6215012;23;20020;-91
2022/12/12 02:01:59;;;;;;;35.65;18.55;;;0.40;99.90;;;;;;6215476;23;20027;-91
2022/12/12 02:04:27;;;;;;;38.60;19.75;;;0.50;99.90;;;;;;6215084;23;20424;-91
2022/12/12 02:06:54;;;;;;;35.65;20.02;;;1.00;99.90;;;;;;6215184;23;20022;-90
2022/12/12 02:09:21;;;;;;;36.15;19.60;;;0.50;99.90;;;;;;6215219;23;20019;-91
2022/12/12 02:11:49;;;;;;;34.25;18.75;;;0.90;99.90;;;;;;6215563;23;20055;-90
2022/12/12 02:14:20;;;;;;;35.20;19.83;;;0.10;99.90;;;;;;6213984;23;20035;-90
2022/12/12 02:17:00;;;;;;;36.35;19.83;;;0.20;99.90;;;;;;6216111;23;20070;-90
2022/12/12 02:19:37;;;;;;;40.33;21.10;;;0.70;99.90;;;;;;6215434;23;20313;-90
2022/12/12 02:22:17;;;;;;;34.50;18.52;;;-0.40;99.90;;;;;;6188980;23;20516;-90
2022/12/12 02:25:07;;;;;;;36.63;19.33;;;-0.10;99.90;;;;;;6214987;23;20440;-90
2022/12/12 02:27:54;;;;;;;38.28;19.20;;;-0.40;99.90;;;;;;6189944;23;20512;-90
2022/12/12 02:30:21;;;;;;;37.72;18.52;;;-0.20;99.90;;;;;;6215382;23;20027;-90
2022/12/12 02:33:03;;;;;;;35.58;18.67;;;-0.40;99.90;;;;;;6215067;23;20070;-90
2022/12/12 02:35:43;;;;;;;40.17;19.98;;;-0.40;99.90;;;;;;6213785;23;20022;-90
2022/12/12 02:38:14;;;;;;;37.58;19.65;;;-0.40;99.90;;;;;;6189836;23;20020;-91
2022/12/12 02:40:58;;;;;;;42.80;18.95;;;0.70;99.90;;;;;;6215367;23;20448;-90
2022/12/12 02:43:35;;;;;;;39.78;20.55;;;-0.40;99.90;;;;;;6189854;23;20024;-89
2022/12/12 02:46:07;;;;;;;37.03;19.50;;;-0.40;99.90;;;;;;6215173;23;20020;-90
2022/12/12 02:48:39;;;;;;;38.83;18.60;;;0.80;99.90;;;;;;6214163;23;20020;-89
2022/12/12 02:51:09;;;;;;;35.60;19.13;;;-0.30;99.90;;;;;;6188951;23;20023;-89
2022/12/12 02:53:35;;;;;;;33.22;19.33;;;0.80;99.90;;;;;;6214881;23;20030;-90
2022/12/12 02:56:02;;;;;;;39.92;19.13;;;0.60;99.90;;;;;;6213860;23;20020;-90
2022/12/12 02:58:29;;;;;;;38.20;20.13;;;-0.40;99.90;;;;;;6189919;23;20016;-90
2022/12/12 03:01:24;;;;;;;37.38;18.90;;;-0.40;99.90;;;;;;6214994;23;20099;-90
2022/12/12 03:10:03;;;;;;;34.03;18.00;;;-0.40;99.90;;;;;;6213324;23;20020;-89
2022/12/12 03:12:40;;;;;;;36.22;19.75;;;-0.40;99.90;;;;;;6214970;23;20435;-90
2022/12/12 03:15:23;;;;;;;36.40;18.90;;;-0.40;99.90;;;;;;6214077;23;20019;-90
2022/12/12 03:17:56;;;;;;;33.15;18.73;;;0.60;99.90;;;;;;6213708;23;20046;-89
2022/12/12 03:20:30;;;;;;;33.65;19.45;;;0.00;99.90;;;;;;6214093;23;20016;-90
2022/12/12 03:23:05;;;;;;;34.50;18.52;;;0.40;99.90;;;;;;6214770;23;20016;-89
2022/12/12 03:25:40;;;;;;;36.80;17.90;;;0.40;99.90;;;;;;6213170;23;20098;-88
2022/12/12 03:28:16;;;;;;;37.53;19.23;;;0.30;99.90;;;;;;6214370;23;20031;-89
2022/12/12 03:30:45;;;;;;;32.50;17.85;;;0.70;99.90;;;;;;6213024;23;20043;-89
2022/12/12 03:33:18;;;;;;;32.15;17.38;;;-0.40;99.90;;;;;;6212441;23;20432;-88
2022/12/12 03:35:47;;;;;;;;;;;0.30;99.90;;;;;;6213490;23;20035;-89
2022/12/12 03:38:21;;;;;;;35.58;17.70;;;-0.40;99.90;;;;;;6212999;23;19958;-89
2022/12/12 03:40:53;;;;;;;35.17;18.42;;;-0.40;99.90;;;;;;6213354;23;20039;-89
2022/12/12 03:43:22;;;;;;;33.95;19.48;;;0.60;99.90;;;;;;6188818;23;20020;-89
2022/12/12 03:45:58;;;;;;;39.53;19.05;;;-0.40;99.90;;;;;;6212474;23;20050;-88
2022/12/12 03:48:31;;;;;;;35.72;18.95;;;-0.40;99.90;;;;;;6209367;23;20023;-89
2022/12/12 03:51:04;;;;;;;33.88;18.90;;;-0.40;99.90;;;;;;6157936;23;20016;-89
2022/12/12 03:53:46;;;;;;;32.90;17.65;;;-0.30;99.90;;;;;;6158112;23;20017;-89
2022/12/12 03:56:36;;;;;;;33.90;16.63;;;-0.30;99.90;;;;;;6158094;23;20052;-89
2022/12/12 03:59:08;;;;;;;31.90;16.77;;;-0.40;99.90;;;;;;6157380;23;20016;-89
2022/12/12 04:01:45;;;;;;;29.90;16.38;;;0.70;99.90;;;;;;6158786;23;20039;-89
2022/12/12 04:04:20;;;;;;;34.92;17.38;;;-0.40;99.90;;;;;;6182635;23;20024;-88
2022/12/12 04:06:58;;;;;;;28.38;16.77;;;-0.30;99.90;;;;;;6183235;23;20456;-89
2022/12/12 04:15:16;;;;;;;31.33;17.30;;;-0.40;99.90;;;;;;6182204;23;20071;-89
2022/12/12 04:18:11;;;;;;;30.92;16.98;;;-0.40;99.90;;;;;;6182957;23;20062;-89
2022/12/12 04:23:57;;;;;;;32.80;16.92;;;-0.40;99.90;;;;;;6183630;23;20075;-89
2022/12/12 04:26:38;;;;;;;29.48;17.75;;;-0.40;99.90;;;;;;6208439;23;20043;-88
2022/12/12 04:29:17;;;;;;;28.80;16.42;;;-0.60;99.90;;;;;;6157253;23;20020;-88
2022/12/12 04:31:57;;;;;;;28.40;16.48;;;-0.40;99.90;;;;;;6182879;23;20075;-89
2022/12/12 04:34:32;;;;;;;28.25;16.15;;;-0.50;99.90;;;;;;6156255;23;20069;-88
2022/12/12 04:37:00;;;;;;;31.00;17.42;;;0.50;99.90;;;;;;6158293;23;20020;-89
2022/12/12 04:39:28;;;;;;;29.58;16.67;;;0.60;99.90;;;;;;6183178;23;20088;-88
2022/12/12 04:41:54;;;;;;;29.90;16.50;;;0.10;99.90;;;;;;6157402;23;20012;-89
2022/12/12 04:44:22;;;;;;;29.65;16.02;;;0.90;99.90;;;;;;6157535;23;20032;-89
2022/12/12 04:46:51;;;;;;;30.55;17.10;;;0.00;99.90;;;;;;6159135;23;20017;-88
2022/12/12 04:49:21;;;;;;;30.65;16.85;;;-0.50;99.90;;;;;;6170985;23;20050;-88
2022/12/12 04:51:51;;;;;;;31.60;17.17;;;-0.10;99.90;;;;;;6212871;23;20012;-88
2022/12/12 04:54:36;;;;;;;30.17;16.17;;;-0.50;99.90;;;;;;6212600;23;20023;-89
2022/12/12 04:57:05;;;;;;;29.45;15.88;;;-0.50;99.90;;;;;;6186468;23;20358;-89
2022/12/12 04:59:31;;;;;;;32.03;17.13;;;-0.50;99.90;;;;;;6212098;23;20058;-89
2022/12/12 05:02:07;;;;;;;28.85;16.25;;;-0.10;99.90;;;;;;6211413;23;20368;-88
2022/12/12 05:05:00;;;;;;;27.15;15.57;;;-0.60;99.90;;;;;;6186569;23;20103;-87
2022/12/12 05:07:38;;;;;;;28.60;14.70;;;-0.50;99.90;;;;;;6187873;23;20016;-88
2022/12/12 05:10:09;;;;;;;28.92;15.93;;;0.60;99.90;;;;;;6211575;23;20129;-88
2022/12/12 05:12:44;;;;;;;27.13;15.55;;;-0.50;99.90;;;;;;6187885;23;20020;-88
2022/12/12 05:15:11;;;;;;;30.90;17.17;;;-0.60;99.90;;;;;;6212675;23;20016;-88
2022/12/12 05:17:45;;;;;;;30.27;16.55;;;-0.70;99.90;;;;;;6211346;23;20020;-88
2022/12/12 05:20:11;;;;;;;28.33;16.42;;;0.20;99.90;;;;;;6211896;23;20020;-88
2022/12/12 05:22:37;;;;;;;27.75;15.70;;;-0.70;99.90;;;;;;6214570;23;20095;-88
2022/12/12 05:25:03;;;;;;;28.75;16.45;;;0.40;99.90;;;;;;6213034;23;20058;-88
2022/12/12 05:27:29;;;;;;;32.03;17.08;;;-0.50;99.90;;;;;;6214803;23;20031;-88
2022/12/12 05:29:54;;;;;;;30.55;16.52;;;0.50;99.90;;;;;;6214430;23;20016;-88
2022/12/12 05:32:20;;;;;;;30.73;16.08;;;-0.60;99.90;;;;;;6213535;23;20079;-88
2022/12/12 05:34:46;;;;;;;27.92;15.60;;;0.20;99.90;;;;;;6212900;23;20027;-88
2022/12/12 05:37:12;;;;;;;30.75;17.10;;;0.50;99.90;;;;;;6213719;23;20573;-88
2022/12/12 05:39:37;;;;;;;29.92;16.40;;;-0.60;99.90;;;;;;6214111;23;20023;-87
2022/12/12 05:42:03;;;;;;;32.72;18.02;;;-0.70;99.90;;;;;;6214497;23;20965;-88
2022/12/12 05:44:29;;;;;;;28.23;16.23;;;-0.60;99.90;;;;;;6188484;23;20027;-87
2022/12/12 05:46:55;;;;;;;30.58;16.42;;;0.30;99.90;;;;;;6213782;23;20444;-87
2022/12/12 05:49:20;;;;;;;28.52;16.65;;;-0.60;99.90;;;;;;6213113;23;20032;-88
2022/12/12 05:51:46;;;;;;;31.00;16.55;;;0.60;99.90;;;;;;6188000;23;20107;-88
2022/12/12 05:54:12;;;;;;;29.85;16.30;;;0.70;99.90;;;;;;6213969;23;20027;-88
2022/12/12 05:56:38;;;;;;;28.73;16.33;;;0.70;99.90;;;;;;6187629;23;20505;-87
2022/12/12 05:59:04;;;;;;;28.08;16.38;;;-0.70;99.90;;;;;;6187327;23;20058;-88
2022/12/12 06:01:31;;;;;;;28.80;16.70;;;0.10;99.90;;;;;;6189118;23;20004;-88
2022/12/12 06:03:56;;;;;;;30.95;17.55;;;-0.60;99.90;;;;;;6188759;23;20023;-88
2022/12/12 06:06:22;;;;;;;29.23;15.88;;;-0.10;99.90;;;;;;6187098;23;20070;-88
2022/12/12 06:08:48;;;;;;;27.73;16.30;;;-0.60;99.90;;;;;;6189548;23;20016;-89
2022/12/12 06:11:14;;;;;;;30.02;17.42;;;-0.60;99.90;;;;;;6188835;23;20046;-89
2022/12/12 06:13:40;;;;;;;32.30;16.95;;;0.20;99.90;;;;;;6189311;23;20341;-88
2022/12/12 06:16:08;;;;;;;30.52;17.45;;;0.50;99.90;;;;;;6213324;23;20471;-87
2022/12/12 06:18:34;;;;;;;30.33;17.48;;;-0.70;99.90;;;;;;6215100;23;20016;-87
2022/12/12 06:21:07;;;;;;;28.90;16.60;;;0.70;99.90;;;;;;6187316;23;20345;-88
2022/12/12 06:23:36;;;;;;;33.60;18.13;;;0.40;99.90;;;;;;6189416;23;20015;-88
2022/12/12 06:26:03;;;;;;;31.45;16.15;;;0.60;99.90;;;;;;6213213;23;20514;-88
2022/12/12 06:28:28;;;;;;;29.63;16.83;;;-0.60;99.90;;;;;;6188449;23;20016;-88
2022/12/12 06:30:54;;;;;;;31.65;16.95;;;-1.20;99.90;;;;;;6188626;23;20082;-88
2022/12/12 06:33:20;;;;;;;30.27;17.17;;;-0.60;99.90;;;;;;6187292;23;20099;-88
2022/12/12 06:35:58;;;;;;;29.63;15.30;;;-0.70;99.90;;;;;;6187957;23;20068;-88
2022/12/12 06:38:24;;;;;;;29.85;16.65;;;-0.70;99.90;;;;;;6214677;23;20020;-87
2022/12/12 06:40:49;;;;;;;27.33;15.75;;;-0.60;99.90;;;;;;6212746;23;20413;-88
2022/12/12 06:43:15;;;;;;;32.35;16.90;;;-0.10;99.90;;;;;;6189140;23;20047;-88
2022/12/12 06:45:41;;;;;;;29.05;16.45;;;-0.70;99.90;;;;;;6189256;23;20416;-89
2022/12/12 06:48:07;;;;;;;29.90;17.02;;;-0.10;99.90;;;;;;6186664;23;20448;-87
2022/12/12 06:50:33;;;;;;;27.67;16.20;;;0.60;99.90;;;;;;6183339;23;20104;-88
2022/12/12 06:52:58;;;;;;;29.80;17.10;;;0.40;99.90;;;;;;6183464;23;20059;-88
2022/12/12 06:55:24;;;;;;;30.42;16.85;;;0.00;99.90;;;;;;6182953;23;20012;-88
2022/12/12 06:57:50;;;;;;;29.85;16.85;;;0.20;99.90;;;;;;6184220;23;20035;-88
2022/12/12 07:00:16;;;;;;;30.38;16.85;;;0.10;99.90;;;;;;6182976;23;20017;-88
2022/12/12 07:02:41;;;;;;;32.25;16.67;;;-0.70;99.90;;;;;;6183632;23;20472;-88
2022/12/12 07:05:07;;;;;;;28.35;16.15;;;0.10;99.90;;;;;;6157623;23;20008;-88
2022/12/12 07:07:33;;;;;;;31.35;16.58;;;-0.60;99.90;;;;;;6158896;23;20023;-88
2022/12/12 07:09:59;;;;;;;31.23;17.30;;;0.50;99.90;;;;;;6157822;23;20024;-88
2022/12/12 07:12:24;;;;;;;31.88;18.13;;;-0.20;99.90;;;;;;6183246;23;20046;-87
2022/12/12 07:14:50;;;;;;;32.53;17.15;;;-0.60;99.90;;;;;;6159463;23;20021;-88
2022/12/12 07:17:16;;;;;;;30.52;17.52;;;-0.60;99.90;;;;;;6182749;23;20047;-88
2022/12/12 07:19:42;;;;;;;30.27;16.77;;;0.10;99.90;;;;;;6182398;23;20090;-88
2022/12/12 07:22:07;;;;;;;31.58;17.25;;;-0.60;99.90;;;;;;6183300;23;20062;-87
2022/12/12 07:24:33;;;;;;;31.05;17.70;;;-0.40;99.90;;;;;;6182319;23;20012;-88
2022/12/12 07:26:59;;;;;;;29.00;17.50;;;0.50;99.90;;;;;;6158272;23;20016;-88
2022/12/12 07:29:25;;;;;;;28.70;17.83;;;-0.70;99.90;;;;;;6159372;23;20067;-89
2022/12/12 07:31:50;;;;;;;33.63;17.85;;;0.10;99.90;;;;;;6182471;23;20103;-88
2022/12/12 07:34:16;;;;;;;28.65;16.98;;;-0.60;99.90;;;;;;6157723;23;20103;-88
2022/12/12 07:36:42;;;;;;;29.23;17.20;;;0.30;99.90;;;;;;6157981;23;20091;-88
2022/12/12 07:39:08;;;;;;;29.02;16.30;;;0.50;99.90;;;;;;6158637;23;20021;-88
2022/12/12 07:41:33;;;;;;;31.42;17.40;;;-0.50;99.90;;;;;;6184506;23;20008;-89
2022/12/12 07:43:59;;;;;;;32.67;17.98;;;0.60;99.90;;;;;;6154892;23;20367;-87
2022/12/12 07:46:25;;;;;;;29.42;17.15;;;0.40;99.90;;;;;;6158016;23;20079;-87
2022/12/12 07:48:52;;;;;;;33.88;17.33;;;0.10;99.90;;;;;;6182489;23;20078;-88
2022/12/12 07:51:18;;;;;;;33.95;17.40;;;0.30;99.90;;;;;;6156359;23;20331;-88
2022/12/12 07:53:45;;;;;;;28.02;16.42;;;0.30;99.90;;;;;;6183407;23;20021;-88
2022/12/12 07:56:14;;;;;;;31.60;18.05;;;-0.50;99.90;;;;;;6158427;23;20025;-89
2022/12/12 07:58:40;;;;;;;31.00;16.73;;;0.60;99.90;;;;;;6183013;23;20027;-87
2022/12/12 08:01:13;;;;;;;31.92;16.75;;;-1.00;99.90;;;;;;6157224;23;20155;-88
2022/12/12 08:03:39;;;;;;;;;;;-0.70;99.90;;;;;;6184260;23;20013;-88
2022/12/12 08:06:05;;;;;;;32.70;18.20;;;-0.70;99.90;;;;;;6183507;23;19982;-88
2022/12/12 08:08:32;;;;;;;32.35;18.00;;;-0.70;99.90;;;;;;6186306;23;20103;-88
2022/12/12 08:10:57;;;;;;;37.30;18.63;;;0.60;99.90;;;;;;6157381;23;20021;-87
2022/12/12 08:13:23;;;;;;;33.05;17.35;;;-0.60;99.90;;;;;;6158316;23;20071;-89
2022/12/12 08:15:49;;;;;;;29.27;17.77;;;0.30;99.90;;;;;;6158280;23;20013;-88
2022/12/12 08:18:15;;;;;;;30.20;17.20;;;0.60;99.90;;;;;;6183082;23;20009;-88
2022/12/12 08:20:40;;;;;;;33.35;17.88;;;-0.60;99.90;;;;;;6182025;23;20107;-88
2022/12/12 08:23:07;;;;;;;34.60;19.50;;;0.80;99.90;;;;;;6157565;23;20020;-88
2022/12/12 08:25:34;;;;;;;33.40;18.38;;;-0.50;99.90;;;;;;6183096;23;20091;-88
2022/12/12 08:28:00;;;;;;;31.48;17.92;;;0.50;99.90;;;;;;6181121;23;20103;-87
2022/12/12 08:30:27;;;;;;;31.90;18.13;;;0.30;99.90;;;;;;6183303;23;20390;-87
2022/12/12 08:32:52;;;;;;;32.03;17.67;;;-0.60;99.90;;;;;;6157928;23;20030;-88
2022/12/12 08:35:18;;;;;;;28.58;17.00;;;0.60;99.90;;;;;;6156563;23;20091;-88
2022/12/12 08:37:44;;;;;;;30.15;17.95;;;-0.50;99.90;;;;;;6160820;23;20548;-88
2022/12/12 08:40:10;;;;;;;31.88;18.45;;;-0.50;99.90;;;;;;6156543;23;20410;-88
2022/12/12 08:42:36;;;;;;;26.40;16.92;;;-0.50;99.90;;;;;;6158397;23;20410;-88
2022/12/12 08:45:02;;;;;;;34.20;17.70;;;-0.40;99.90;;;;;;6182533;23;20239;-88
2022/12/12 08:47:28;;;;;;;28.42;16.60;;;-0.40;99.90;;;;;;6182783;23;20019;-89
2022/12/12 08:49:54;;;;;;;32.20;17.10;;;0.70;99.90;;;;;;6204354;23;20059;-89
2022/12/12 08:52:20;;;;;;;28.63;16.83;;;0.50;99.90;;;;;;6212548;23;20016;-88
2022/12/12 08:54:46;;;;;;;29.13;16.92;;;0.20;99.90;;;;;;6189293;22;20348;-88
2022/12/12 08:57:12;;;;;;;29.35;16.13;;;1.00;99.90;;;;;;6187396;23;20020;-88
2022/12/12 08:59:37;;;;;;;27.80;16.23;;;-0.70;99.90;;;;;;6187146;23;20016;-88
2022/12/12 09:02:03;;;;;;;29.55;16.88;;;0.10;99.90;;;;;;6211022;23;20016;-88
2022/12/12 09:04:29;;;;;;;30.35;17.23;;;0.70;99.90;;;;;;6211007;23;20103;-87
2022/12/12 09:06:54;;;;;;;29.40;17.40;;;-0.20;99.90;;;;;;6216887;23;20012;-89
2022/12/12 09:09:20;;;;;;;31.65;16.75;;;-0.30;99.90;;;;;;6188205;23;20227;-89
2022/12/12 09:11:46;;;;;;;29.25;16.63;;;0.80;99.90;;;;;;6188842;23;20030;-89
2022/12/12 09:14:11;;;;;;;28.08;16.98;;;0.70;99.90;;;;;;6188549;23;20020;-90
2022/12/12 09:16:37;;;;;;;32.55;17.88;;;0.70;99.90;;;;;;6189143;23;20019;-90
2022/12/12 09:19:03;;;;;;;28.55;17.15;;;1.10;99.90;;;;;;6188797;23;20028;-91
2022/12/12 09:21:29;;;;;;;28.20;16.50;;;0.00;99.90;;;;;;6188814;23;20008;-90
2022/12/12 09:23:54;;;;;;;28.48;17.48;;;0.00;99.90;;;;;;6188708;23;20348;-91
2022/12/12 09:26:20;;;;;;;30.63;17.40;;;1.20;99.90;;;;;;6188754;23;20496;-90
2022/12/12 09:28:47;;;;;;;28.80;16.80;;;0.10;99.90;;;;;;6188738;23;20016;-90
2022/12/12 09:31:13;;;;;;;28.05;17.08;;;0.40;99.90;;;;;;6213001;23;20023;-90
2022/12/12 09:33:39;;;;;;;25.90;16.48;;;0.20;99.90;;;;;;6214175;23;20016;-90
2022/12/12 09:36:07;;;;;;;29.88;17.02;;;0.00;99.90;;;;;;6186765;23;20023;-89
2022/12/12 09:38:33;;;;;;;29.30;18.38;;;0.10;99.90;;;;;;6213882;23;20519;-90
2022/12/12 09:41:10;;;;;;;27.10;16.45;;;0.70;99.90;;;;;;6213697;23;20039;-90
2022/12/12 09:43:47;;;;;;;30.58;17.42;;;0.20;99.90;;;;;;6190356;23;20016;-89
2022/12/12 09:46:32;;;;;;;27.52;16.63;;;0.20;99.90;;;;;;6188921;23;20383;-89
2022/12/12 09:49:11;;;;;;;28.80;16.90;;;0.30;99.90;;;;;;6213102;23;20095;-89
2022/12/12 09:51:37;;;;;;;29.05;17.13;;;0.30;99.90;;;;;;6187576;23;20020;-89
2022/12/12 09:54:03;;;;;;;25.83;15.85;;;1.10;99.90;;;;;;6215213;23;20019;-89
2022/12/12 09:56:36;;;;;;;28.92;17.88;;;0.40;99.90;;;;;;6189271;23;20058;-89
2022/12/12 09:59:16;;;;;;;27.38;17.00;;;0.40;99.90;;;;;;6212064;23;20517;-89
2022/12/12 10:02:04;;;;;;;25.58;16.45;;;1.40;99.90;;;;;;6188510;23;20027;-88
2022/12/12 10:04:39;;;;;;;25.23;15.98;;;0.50;99.90;;;;;;6187604;23;20467;-89
2022/12/12 10:07:19;;;;;;;26.15;16.05;;;0.50;99.90;;;;;;6187716;23;20048;-90
2022/12/12 10:10:15;;;;;;;25.92;16.42;;;0.50;99.90;;;;;;6189087;23;20069;-89
2022/12/12 10:12:41;;;;;;;24.58;16.35;;;0.50;99.90;;;;;;6190626;23;20028;-91
2022/12/12 10:15:22;;;;;;;28.92;17.23;;;1.90;99.90;;;;;;6218025;22;20020;-91
2022/12/12 10:17:49;;;;;;;25.20;16.98;;;0.60;99.90;;;;;;6191676;23;20075;-93
2022/12/12 10:20:20;;;;;;;26.38;16.83;;;0.60;99.90;;;;;;6189146;23;20012;-90
2022/12/12 10:22:53;;;;;;;24.65;15.70;;;1.90;99.90;;;;;;6191092;23;20016;-91
2022/12/12 10:25:36;;;;;;;28.02;16.05;;;0.80;99.90;;;;;;6193052;23;20337;-91
2022/12/12 10:28:12;;;;;;;24.38;15.60;;;0.70;99.90;;;;;;6216389;23;20339;-91
2022/12/12 10:30:48;;;;;;;25.15;15.55;;;0.60;99.90;;;;;;6190820;23;20112;-91
2022/12/12 10:33:20;;;;;;;26.60;15.90;;;1.30;99.90;;;;;;6189825;23;20020;-91
2022/12/12 10:35:57;;;;;;;26.00;15.80;;;0.60;99.90;;;;;;6190275;23;20020;-91
2022/12/12 10:38:32;;;;;;;22.25;14.07;;;1.40;99.90;;;;;;6218050;23;20020;-90
2022/12/12 10:41:10;;;;;;;22.75;14.82;;;0.50;99.90;;;;;;6189372;23;20352;-90
2022/12/12 10:43:48;;;;;;;23.00;15.27;;;0.50;99.90;;;;;;6190786;23;20023;-92
2022/12/12 10:46:19;;;;;;;25.08;15.27;;;0.70;99.90;;;;;;6190225;23;20448;-92
2022/12/12 10:48:47;;;;;;;24.15;14.95;;;1.60;99.90;;;;;;6184411;23;20020;-92
2022/12/12 10:51:16;;;;;;;22.95;14.55;;;1.80;99.90;;;;;;6184276;23;20103;-92
2022/12/12 10:53:43;;;;;;;24.35;15.20;;;1.40;99.90;;;;;;6210012;23;20059;-91
2022/12/12 10:56:17;;;;;;;24.55;15.40;;;1.80;99.90;;;;;;6187250;23;20377;-91
2022/12/12 10:58:50;;;;;;;24.50;14.55;;;1.80;99.90;;;;;;6185914;23;20103;-91
2022/12/12 11:01:29;;;;;;;24.70;15.52;;;1.10;99.90;;;;;;6184578;23;20437;-91
2022/12/12 11:03:56;;;;;;;24.58;14.00;;;0.50;99.90;;;;;;6184966;23;20021;-90
2022/12/12 11:06:30;;;;;;;25.02;15.48;;;1.70;99.90;;;;;;6184957;23;20089;-90
2022/12/12 11:08:59;;;;;;;22.80;14.98;;;1.40;99.90;;;;;;6184673;23;20048;-91
2022/12/12 11:11:27;;;;;;;24.45;14.77;;;0.50;99.90;;;;;;6185452;23;20017;-91
2022/12/12 11:13:58;;;;;;;20.98;13.98;;;1.30;99.90;;;;;;6185540;23;20075;-94
2022/12/12 11:16:42;;;;;;;25.52;14.48;;;0.50;99.90;;;;;;6184225;23;20012;-91
2022/12/12 11:19:17;;;;;;;25.55;14.43;;;0.50;99.90;;;;;;6184465;23;20091;-90
2022/12/12 11:21:45;;;;;;;24.00;14.27;;;0.60;99.90;;;;;;6211481;23;20075;-94
2022/12/12 11:24:15;;;;;;;20.60;13.55;;;0.50;99.90;;;;;;6209877;23;20016;-93
2022/12/12 11:26:51;;;;;;;19.98;13.57;;;0.60;99.90;;;;;;6185834;23;20021;-92
2022/12/12 11:29:30;;;;;;;22.48;14.98;;;0.60;99.90;;;;;;6184881;23;20017;-92
2022/12/12 11:31:57;;;;;;;22.98;14.93;;;0.60;99.90;;;;;;6185799;23;20016;-92
2022/12/12 11:34:25;;;;;;;25.00;14.93;;;1.30;99.90;;;;;;6185345;23;20460;-92
2022/12/12 11:36:51;;;;;;;19.70;13.35;;;1.90;99.90;;;;;;6187044;23;20484;-92
2022/12/12 11:39:32;;;;;;;21.95;14.27;;;2.00;99.90;;;;;;6183605;23;20028;-89
2022/12/12 11:42:03;;;;;;;26.35;15.88;;;0.80;99.90;;;;;;6184495;23;20444;-87
2022/12/12 11:44:34;;;;;;;26.02;16.30;;;0.90;99.90;;;;;;6185213;23;20021;-88
2022/12/12 11:47:25;;;;;;;25.23;16.70;;;0.80;99.90;;;;;;6183182;23;20012;-88
2022/12/12 11:49:54;;;;;;;28.17;17.55;;;0.80;99.90;;;;;;6211341;23;20716;-87
2022/12/12 11:52:27;;;;;;;29.85;17.67;;;0.50;99.90;;;;;;6189235;23;20051;-88
2022/12/12 11:54:54;;;;;;;29.35;18.67;;;0.80;99.90;;;;;;6213203;23;20091;-87
2022/12/12 11:57:37;;;;;;;26.98;17.38;;;1.60;99.90;;;;;;6187580;23;20027;-88
2022/12/12 12:00:12;;;;;;;30.05;18.20;;;1.40;99.90;;;;;;6212103;23;20363;-88
2022/12/12 12:03:04;;;;;;;27.27;17.23;;;0.90;99.90;;;;;;6188606;23;20016;-87
2022/12/12 12:05:52;;;;;;;28.85;18.02;;;1.90;99.90;;;;;;6211662;23;20051;-88
2022/12/12 12:08:21;;;;;;;34.47;19.42;;;0.90;99.90;;;;;;6188472;23;20031;-88
2022/12/12 12:11:15;;;;;;;33.08;18.70;;;2.00;99.90;;;;;;6188413;23;20027;-87
2022/12/12 12:14:02;;;;;;;30.60;18.90;;;0.80;99.90;;;;;;6188472;23;20020;-87
2022/12/12 12:16:45;;;;;;;29.85;19.17;;;1.80;99.90;;;;;;6188234;23;20024;-87
2022/12/12 12:19:11;;;;;;;30.70;19.58;;;0.70;99.90;;;;;;6211744;23;20058;-87
2022/12/12 12:21:43;;;;;;;30.73;19.15;;;0.70;99.90;;;;;;6188001;23;20099;-87
2022/12/12 12:24:35;;;;;;;31.93;20.13;;;0.60;99.90;;;;;;6212700;23;20078;-87
2022/12/12 12:27:07;;;;;;;31.80;19.70;;;0.60;99.90;;;;;;6186859;23;20477;-87
2022/12/12 12:29:44;;;;;;;29.25;18.67;;;0.60;99.90;;;;;;6188238;23;20031;-88
2022/12/12 12:32:29;;;;;;;30.58;18.33;;;0.60;99.90;;;;;;6187310;23;20023;-88
2022/12/12 12:34:54;;;;;;;31.25;19.25;;;0.60;99.90;;;;;;6212322;23;20013;-89
2022/12/12 12:37:40;;;;;;;31.83;19.92;;;1.70;99.90;;;;;;6189420;23;20024;-88
2022/12/12 12:40:19;;;;;;;29.98;18.60;;;0.60;99.90;;;;;;6186528;23;20091;-88
2022/12/12 12:43:08;;;;;;;28.55;18.05;;;0.60;99.90;;;;;;6213412;23;20039;-88
2022/12/12 12:45:48;;;;;;;27.23;16.67;;;0.60;99.90;;;;;;6187378;23;20537;-89
2022/12/12 12:48:29;;;;;;;28.85;16.90;;;0.50;99.90;;;;;;6185051;23;20016;-89
2022/12/12 12:51:07;;;;;;;30.85;17.95;;;0.60;99.90;;;;;;6156379;23;20016;-88
2022/12/12 12:53:46;;;;;;;28.42;17.77;;;0.50;99.90;;;;;;6157259;23;20031;-88
2022/12/12 12:56:21;;;;;;;28.25;17.83;;;0.60;99.90;;;;;;6182266;23;20012;-88
2022/12/12 12:58:48;;;;;;;27.63;17.65;;;0.60;99.90;;;;;;6182428;23;20483;-88
2022/12/12 13:01:26;;;;;;;27.40;16.92;;;0.50;99.90;;;;;;6156116;23;20318;-88
2022/12/12 13:04:00;;;;;;;31.40;19.45;;;0.40;99.90;;;;;;6158033;23;20095;-88
2022/12/12 13:06:43;;;;;;;27.58;17.23;;;0.50;99.90;;;;;;6181473;23;20390;-88